LFGJ Airport Information

Runway Information
Runway 05 Length 7318 ft width 148 ft
Elevation 639 ft Threshold 0 ft Heading 55
Runway 23 Length 7318 ft Width 148 ft
Elevation 643 ft Threshold 0 ft Heading 235
Airport Frequencies
Type INFO Name AFIS Frequency 130.775 MHZ
Type TWR Name DOLE TWR Frequency 130.775 MHZ
Airport Navaids
Airport Weather Information & NOTAM
ADDS - METARS form results

(0116 UTC 22 May 2022)
Data provider http://aviationweather.gov/metar/data/
 
METAR text: LFGJ 220100Z AUTO 04009KT CAVOK 15/10 Q1016
Conditions at: LFGJ (DOLE TAVAUX , FR) observed 0100 UTC 22 May 2022
Temperature: 15.0°C (59°F)
Dewpoint: 10.0°C (50°F) [RH = 72%]
Pressure (altimeter): 30.00 inches Hg (1016.0 mb)
Winds: from the NE (40 degrees) at 10 MPH (9 knots; 4.6 m/s)
Visibility: 6 or more miles (10+ km)
Ceiling: ceiling and visibility are OK
Clouds: unknown
Weather: no significant weather observed at this time

METAR text: LFGJ 220030Z AUTO 05006KT CAVOK 16/11 Q1016
Conditions at: LFGJ (DOLE TAVAUX , FR) observed 0030 UTC 22 May 2022
Temperature: 16.0°C (61°F)
Dewpoint: 11.0°C (52°F) [RH = 72%]
Pressure (altimeter): 30.00 inches Hg (1016.0 mb)
Winds: from the NE (50 degrees) at 7 MPH (6 knots; 3.1 m/s)
Visibility: 6 or more miles (10+ km)
Ceiling: ceiling and visibility are OK
Clouds: unknown
Weather: no significant weather observed at this time

Forecast for: LFGJ (DOLE TAVAUX , FR)
Text: TAF LFGJ 211400Z 2115/2124 04006KT CAVOK
Forecast period: 1500 UTC 21 May 2022 to 0000 UTC 22 May 2022
Forecast type: FROM: standard forecast or significant change
Winds: from the NE (40 degrees) at 7 MPH (6 knots; 3.1 m/s)
Visibility: 6 or more miles (10+ km)
Ceiling: unknown
Clouds: missing
Weather: NSW  (no significant weather)